Pagrindinis puslapis
METAR-TAF:

METAR-TAF

Oro uostai :

Uberaba, Minas Žeraisas, Brazilija

platuma: 19-47S, ilguma: 047-58W, Aukštis: 807 m

Dabartinis oras

Ataskaita buvo paskelbta 1 valandą ir 23 minutes, ne 21:00 UTC
Vėjas 6 kt iš Šiaurės
Temperatūra 32°C
Drėgmė 20%
Slėgis 1016 hPa
Matomumas: 6000 m

METAR: SBUR 162100Z 01006KT 6000 NSC 32/06 Q1016

Laikas: 19:23 (22:23 UTC)

Prognozė

Ataskaita buvo paskelbta 6 valandos ir 17 minutes, ne 16:06 UTC
Prognozė galioja nuo 16 metu 18 UTC su 17 metu 06 UTC
Vėjas 15 kt iš Šiaurės Rytų
Matomumas 10 km arba daugiau
nėra debesų žemiau 1500 m ir nėra kamuolinių lietaus debesų

TAF: SBUR 161606Z 1618/1706 04015KT CAVOK TX34/1618Z TN23/1705Z RMK PHM

Orai ataskaitas ir orų prognozės (METAR, TAF).

turimą stotys yra geltonos ir raudonos taškus žemėlapyje.

Perkelti pele per norėdami pamatyti stoties vardą.

Tada spustelėkite, norėdami matyti oro stebėjimo ir prognozės.

Norėdami pakeisti žemėlapį: spustelėkite ant žalios mygtukų su juodo kryžiaus žemyn,; žalią mygtuką su brūkšneliu, jei norite nutolinti; arba žalių rodyklių gretimoms žemėlapius.


METAR-TAF: